createdAt,value
2018-03-25T00:02:31.272Z,3.30
2018-03-25T00:05:01.285Z,3.10
2018-03-25T00:07:32.735Z,3.00
2018-03-25T00:10:01.608Z,3.20
2018-03-25T00:12:30.997Z,3.20
2018-03-25T00:15:00.050Z,3.10
2018-03-25T00:17:28.444Z,3.10
2018-03-25T00:19:57.779Z,3.00
2018-03-25T00:22:25.931Z,2.90
2018-03-25T00:24:55.907Z,2.80
2018-03-25T00:27:29.133Z,2.80
2018-03-25T00:29:58.956Z,2.90
2018-03-25T00:32:28.796Z,2.90
2018-03-25T00:35:00.295Z,3.00
2018-03-25T00:37:30.490Z,2.80
2018-03-25T00:39:59.439Z,2.80
2018-03-25T00:42:28.987Z,2.90
2018-03-25T00:45:00.356Z,2.90
2018-03-25T00:47:29.395Z,2.70
2018-03-25T00:49:58.297Z,2.60
2018-03-25T00:52:28.880Z,2.80
2018-03-25T00:54:58.943Z,2.80
2018-03-25T00:57:29.262Z,2.80
2018-03-25T01:00:05.217Z,2.60
2018-03-25T01:02:33.886Z,2.50
2018-03-25T01:05:02.947Z,2.40
2018-03-25T01:07:31.363Z,2.40
2018-03-25T01:10:00.760Z,2.70
2018-03-25T01:12:29.998Z,2.70
2018-03-25T01:17:33.051Z,2.60
2018-03-25T01:20:03.297Z,2.40
2018-03-25T01:22:35.963Z,2.60
2018-03-25T01:25:04.192Z,2.70
2018-03-25T01:27:33.858Z,2.60
2018-03-25T01:30:04.797Z,2.60
2018-03-25T01:32:33.867Z,2.50
2018-03-25T01:35:02.781Z,2.20
2018-03-25T01:37:34.434Z,2.30
2018-03-25T01:40:05.761Z,2.10
2018-03-25T01:42:34.179Z,2.10
2018-03-25T01:45:03.402Z,2.00
2018-03-25T01:47:32.266Z,2.10
2018-03-25T01:50:03.184Z,2.10
2018-03-25T01:52:32.987Z,1.90
2018-03-25T01:55:03.271Z,1.90
2018-03-25T01:57:31.429Z,1.90
2018-03-25T02:00:00.269Z,1.90
2018-03-25T02:02:28.758Z,1.90
2018-03-25T02:04:58.980Z,1.90
2018-03-25T02:07:27.867Z,1.90
2018-03-25T02:09:59.373Z,2.00
2018-03-25T02:12:30.450Z,2.00
2018-03-25T02:14:59.268Z,1.90
2018-03-25T02:17:29.012Z,2.00
2018-03-25T02:19:57.374Z,1.90
2018-03-25T02:22:26.038Z,1.80
2018-03-25T02:24:55.145Z,1.90
2018-03-25T02:27:27.499Z,1.90
2018-03-25T02:29:57.280Z,1.80
2018-03-25T02:32:27.112Z,1.60
2018-03-25T02:34:56.794Z,1.70
2018-03-25T02:37:27.135Z,1.70
2018-03-25T02:39:55.668Z,1.90
2018-03-25T02:42:25.935Z,1.80
2018-03-25T02:44:55.882Z,1.70
2018-03-25T02:47:24.291Z,1.60
2018-03-25T02:49:53.455Z,1.60
2018-03-25T02:52:23.229Z,1.50
2018-03-25T02:54:53.136Z,1.50
2018-03-25T02:57:23.949Z,1.40
2018-03-25T02:59:52.752Z,1.40
2018-03-25T03:02:22.949Z,1.40
2018-03-25T03:04:53.494Z,1.30
2018-03-25T03:07:24.065Z,1.40
2018-03-25T03:09:55.988Z,1.60
2018-03-25T03:12:24.280Z,1.60
2018-03-25T03:14:52.719Z,1.50
2018-03-25T03:17:21.251Z,1.40
2018-03-25T03:19:50.288Z,1.40
2018-03-25T03:22:18.628Z,1.50
2018-03-25T03:24:48.354Z,1.40
2018-03-25T03:27:19.005Z,1.20
2018-03-25T03:29:49.896Z,1.20
2018-03-25T03:32:18.000Z,1.20
2018-03-25T03:34:48.463Z,1.20
2018-03-25T03:37:17.497Z,1.50
2018-03-25T03:39:48.444Z,1.50
2018-03-25T03:42:18.374Z,1.40
2018-03-25T03:44:49.096Z,1.40
2018-03-25T03:47:19.043Z,1.20
2018-03-25T03:49:48.173Z,1.20
2018-03-25T03:52:19.984Z,1.20
2018-03-25T03:54:49.197Z,1.30
2018-03-25T03:57:18.534Z,1.30
2018-03-25T03:59:47.556Z,1.30
2018-03-25T04:02:17.557Z,1.10
2018-03-25T04:04:45.709Z,1.20
2018-03-25T04:07:14.133Z,1.30
2018-03-25T04:09:43.236Z,1.10
2018-03-25T04:12:12.667Z,1.10
2018-03-25T04:14:41.002Z,1.00
2018-03-25T04:17:09.405Z,1.00
2018-03-25T04:19:36.977Z,1.00
2018-03-25T04:22:04.565Z,1.00
2018-03-25T04:24:32.137Z,1.20
2018-03-25T04:26:59.729Z,1.20
2018-03-25T04:29:27.314Z,1.10
2018-03-25T04:31:54.905Z,1.00
2018-03-25T04:34:23.243Z,1.30
2018-03-25T04:36:50.838Z,1.30
2018-03-25T04:39:18.430Z,1.10
2018-03-25T04:41:46.002Z,1.00
2018-03-25T04:44:13.601Z,0.90
2018-03-25T04:46:41.179Z,0.90
2018-03-25T04:49:08.773Z,1.00
2018-03-25T04:51:36.333Z,1.10
2018-03-25T04:54:03.932Z,1.00
2018-03-25T04:56:32.269Z,0.90
2018-03-25T04:58:59.863Z,0.90
2018-03-25T05:01:27.434Z,1.10
2018-03-25T05:03:55.235Z,0.90
2018-03-25T05:06:22.798Z,0.80
2018-03-25T05:08:50.385Z,0.70
2018-03-25T05:11:17.953Z,1.00
2018-03-25T05:13:46.317Z,1.00
2018-03-25T05:16:13.884Z,0.90
2018-03-25T05:18:41.485Z,0.80
2018-03-25T05:21:09.055Z,0.80
2018-03-25T05:23:36.645Z,0.70
2018-03-25T05:26:04.222Z,0.60
2018-03-25T05:28:31.817Z,0.70
2018-03-25T05:30:59.392Z,0.90
2018-03-25T05:33:26.978Z,0.90
2018-03-25T05:35:54.599Z,0.70
2018-03-25T05:38:22.229Z,0.70
2018-03-25T05:40:49.809Z,0.80
2018-03-25T05:43:17.413Z,0.80
2018-03-25T05:45:44.982Z,1.10
2018-03-25T05:48:12.572Z,1.00
2018-03-25T05:50:40.991Z,1.00
2018-03-25T05:53:08.561Z,0.90
2018-03-25T05:55:36.161Z,0.90
2018-03-25T05:58:04.501Z,1.10
2018-03-25T06:00:32.095Z,1.10
2018-03-25T06:03:00.428Z,0.90
2018-03-25T06:05:28.018Z,0.90
2018-03-25T06:07:55.581Z,1.00
2018-03-25T06:10:23.173Z,1.00
2018-03-25T06:12:50.771Z,1.20
2018-03-25T06:15:18.377Z,1.30
2018-03-25T06:17:46.712Z,1.30
2018-03-25T06:20:14.308Z,1.30
2018-03-25T06:22:41.885Z,1.40
2018-03-25T06:25:09.500Z,1.30
2018-03-25T06:27:37.082Z,1.30
2018-03-25T06:30:04.724Z,1.30
2018-03-25T06:32:32.302Z,1.40
2018-03-25T06:35:00.658Z,1.60
2018-03-25T06:37:28.243Z,1.60
2018-03-25T06:39:55.949Z,1.70
2018-03-25T06:42:23.517Z,2.00
2018-03-25T06:44:51.120Z,2.50
2018-03-25T06:47:19.454Z,3.40
2018-03-25T06:49:47.048Z,3.40
2018-03-25T06:52:14.612Z,3.90
2018-03-25T06:54:42.210Z,4.40
2018-03-25T06:57:09.782Z,4.90
2018-03-25T06:59:37.355Z,5.40
2018-03-25T07:02:04.949Z,5.90
2018-03-25T07:04:33.286Z,6.70
2018-03-25T07:07:00.883Z,6.70
2018-03-25T07:09:28.453Z,7.20
2018-03-25T07:11:56.829Z,8.10
2018-03-25T07:14:25.167Z,8.50
2018-03-25T07:16:52.802Z,8.50
2018-03-25T07:19:20.366Z,8.90
2018-03-25T07:21:47.966Z,9.20
2018-03-25T07:24:15.572Z,9.60
2018-03-25T07:26:43.167Z,10.00
2018-03-25T07:29:10.737Z,10.30
2018-03-25T07:31:38.344Z,10.60
2018-03-25T07:34:05.913Z,10.80
2018-03-25T07:36:33.508Z,11.10
2018-03-25T07:39:01.082Z,11.40
2018-03-25T07:41:28.684Z,11.80
2018-03-25T07:43:56.272Z,12.20
2018-03-25T07:46:23.880Z,12.60
2018-03-25T07:48:52.230Z,13.50
2018-03-25T07:51:19.833Z,13.50
2018-03-25T07:53:47.407Z,13.80
2018-03-25T07:56:15.002Z,14.30
2018-03-25T07:58:42.581Z,14.80
2018-03-25T08:01:10.199Z,15.20
2018-03-25T08:03:37.784Z,15.60
2018-03-25T08:06:05.417Z,16.00
2018-03-25T08:08:32.990Z,16.50
2018-03-25T08:11:00.570Z,16.80
2018-03-25T08:13:28.178Z,17.20
2018-03-25T08:15:55.750Z,17.50
2018-03-25T08:18:23.374Z,17.80
2018-03-25T08:20:51.723Z,18.40
2018-03-25T08:23:19.326Z,18.40
2018-03-25T08:25:48.002Z,18.80
2018-03-25T08:28:15.614Z,18.80
2018-03-25T08:30:43.189Z,19.00
2018-03-25T08:33:10.793Z,19.30
2018-03-25T08:35:38.375Z,19.60
2018-03-25T08:40:41.175Z,20.00
2018-03-25T08:43:09.593Z,20.50
2018-03-25T08:45:37.169Z,20.40
2018-03-25T08:48:04.772Z,20.60
2018-03-25T08:50:32.362Z,20.90
2018-03-25T08:52:59.974Z,21.30
2018-03-25T08:55:27.570Z,21.30
2018-03-25T08:57:55.206Z,21.40
2018-03-25T09:00:22.778Z,21.60
2018-03-25T09:02:50.382Z,21.70
2018-03-25T09:05:17.965Z,21.80
2018-03-25T09:07:45.563Z,22.20
2018-03-25T09:10:13.939Z,22.30
2018-03-25T09:12:42.310Z,22.50
2018-03-25T09:15:10.988Z,22.50
2018-03-25T09:17:38.591Z,22.60
2018-03-25T09:20:07.222Z,23.20
2018-03-25T09:22:34.844Z,23.20
2018-03-25T09:25:02.958Z,23.60
2018-03-25T09:27:30.563Z,23.80
2018-03-25T09:29:58.240Z,23.90
2018-03-25T09:32:25.871Z,24.00
2018-03-25T09:34:54.014Z,24.50
2018-03-25T09:37:21.642Z,24.70
2018-03-25T09:39:50.050Z,25.00
2018-03-25T09:42:17.636Z,25.00
2018-03-25T09:44:45.998Z,25.40
2018-03-25T09:47:14.378Z,25.40
2018-03-25T09:49:41.974Z,25.30
2018-03-25T09:52:10.334Z,25.40
2018-03-25T09:54:37.935Z,25.40
2018-03-25T09:57:05.516Z,25.90
2018-03-25T09:59:33.146Z,25.80
2018-03-25T10:02:04.686Z,25.70
2018-03-25T10:04:32.313Z,26.10
2018-03-25T10:06:59.918Z,26.20
2018-03-25T10:09:27.555Z,26.50
2018-03-25T10:11:55.134Z,26.50
2018-03-25T10:14:22.747Z,26.50
2018-03-25T10:16:50.321Z,26.50
2018-03-25T10:19:17.917Z,26.80
2018-03-25T10:21:46.258Z,26.90
2018-03-25T10:24:13.878Z,26.90
2018-03-25T10:26:43.110Z,26.70
2018-03-25T10:29:10.715Z,27.10
2018-03-25T10:31:38.290Z,27.00
2018-03-25T10:34:05.895Z,27.10
2018-03-25T10:36:33.506Z,27.20
2018-03-25T10:39:01.106Z,26.90
2018-03-25T10:41:29.324Z,27.10
2018-03-25T10:43:56.962Z,27.30
2018-03-25T10:46:24.578Z,27.00
2018-03-25T10:48:52.465Z,26.70
2018-03-25T10:51:20.834Z,27.00
2018-03-25T10:53:49.219Z,26.80
2018-03-25T10:56:17.580Z,27.10
2018-03-25T10:58:45.174Z,27.10
2018-03-25T11:01:12.786Z,27.10
2018-03-25T11:03:40.381Z,26.70
2018-03-25T11:06:07.982Z,26.60
2018-03-25T11:08:36.469Z,25.70
2018-03-25T11:11:04.077Z,25.80
2018-03-25T11:13:31.705Z,25.30
2018-03-25T11:15:59.310Z,24.80
2018-03-25T11:18:26.925Z,24.50
2018-03-25T11:20:54.548Z,24.00
2018-03-25T11:23:22.898Z,23.00
2018-03-25T11:25:50.516Z,22.90
2018-03-25T11:28:18.091Z,22.60
2018-03-25T11:30:45.709Z,22.30
2018-03-25T11:33:13.301Z,22.00
2018-03-25T11:35:40.919Z,21.80
2018-03-25T11:38:08.512Z,21.80
2018-03-25T11:40:36.120Z,21.40
2018-03-25T11:43:03.712Z,21.00
2018-03-25T11:45:32.092Z,20.50
2018-03-25T11:48:00.464Z,20.60
2018-03-25T11:50:28.846Z,20.50
2018-03-25T11:52:57.267Z,20.40
2018-03-25T11:55:24.870Z,20.40
2018-03-25T11:57:52.457Z,20.30
2018-03-25T12:00:20.038Z,20.00
2018-03-25T12:02:47.638Z,19.60
2018-03-25T12:05:15.209Z,19.80
2018-03-25T12:07:42.834Z,19.60
2018-03-25T12:10:11.184Z,19.70
2018-03-25T12:12:38.785Z,19.60
2018-03-25T12:15:06.414Z,19.30
2018-03-25T12:17:34.069Z,19.00
2018-03-25T12:20:01.637Z,18.80
2018-03-25T12:22:29.242Z,18.70
2018-03-25T12:24:56.900Z,18.60
2018-03-25T12:27:24.514Z,18.50
2018-03-25T12:29:52.102Z,18.60
2018-03-25T12:32:19.711Z,18.30
2018-03-25T12:34:47.291Z,18.30
2018-03-25T12:37:14.898Z,18.10
2018-03-25T12:39:42.483Z,17.90
2018-03-25T12:42:10.086Z,18.00
2018-03-25T12:44:37.667Z,18.00
2018-03-25T12:47:05.269Z,18.00
2018-03-25T12:49:32.857Z,17.90
2018-03-25T12:52:00.572Z,17.70
2018-03-25T12:54:28.151Z,17.70
2018-03-25T12:56:55.742Z,17.80
2018-03-25T12:59:23.334Z,17.70
2018-03-25T13:01:50.949Z,17.60
2018-03-25T13:04:18.526Z,17.40
2018-03-25T13:06:46.129Z,17.40
2018-03-25T13:09:14.498Z,17.60
2018-03-25T13:11:42.074Z,17.60
2018-03-25T13:14:09.671Z,17.60
2018-03-25T13:16:37.252Z,17.50
2018-03-25T13:19:04.859Z,17.50
2018-03-25T13:21:32.434Z,17.40
2018-03-25T13:24:00.054Z,17.30
2018-03-25T13:26:27.650Z,17.30
2018-03-25T13:28:55.259Z,17.20
2018-03-25T13:31:22.841Z,17.10
2018-03-25T13:33:51.210Z,17.20
2018-03-25T13:36:18.794Z,17.20
2018-03-25T13:38:46.403Z,17.20
2018-03-25T13:41:14.043Z,17.00
2018-03-25T13:43:42.211Z,16.90
2018-03-25T13:46:10.516Z,16.90
2018-03-25T13:48:38.118Z,16.70
2018-03-25T13:51:06.467Z,16.80
2018-03-25T13:53:34.062Z,16.80
2018-03-25T13:56:01.685Z,16.80
2018-03-25T13:58:29.248Z,16.70
2018-03-25T14:00:56.830Z,16.70
2018-03-25T14:03:24.429Z,16.40
2018-03-25T14:05:52.012Z,16.50
2018-03-25T14:08:19.611Z,16.30
2018-03-25T14:10:47.954Z,16.10
2018-03-25T14:13:15.557Z,16.00
2018-03-25T14:15:43.136Z,16.20
2018-03-25T14:18:10.739Z,16.20
2018-03-25T14:20:38.318Z,16.30
2018-03-25T14:23:06.713Z,16.10
2018-03-25T14:25:34.271Z,16.10
2018-03-25T14:28:01.854Z,16.10
2018-03-25T14:30:29.770Z,16.00
2018-03-25T14:32:57.383Z,15.90
2018-03-25T14:35:25.660Z,16.00
2018-03-25T14:37:54.054Z,15.90
2018-03-25T14:40:21.702Z,15.90
2018-03-25T14:42:49.273Z,16.00
2018-03-25T14:45:16.873Z,16.00
2018-03-25T14:47:45.210Z,16.00
2018-03-25T14:50:12.822Z,16.00
2018-03-25T14:52:41.163Z,15.90
2018-03-25T14:55:08.765Z,15.80
2018-03-25T14:57:36.344Z,15.80
2018-03-25T15:00:03.945Z,15.70
2018-03-25T15:02:31.546Z,15.80
2018-03-25T15:04:59.153Z,15.80
2018-03-25T15:07:26.730Z,15.70
2018-03-25T15:09:54.335Z,15.70
2018-03-25T15:12:21.929Z,15.70
2018-03-25T15:14:49.531Z,15.50
2018-03-25T15:17:17.873Z,15.50
2018-03-25T15:19:45.532Z,15.40
2018-03-25T15:22:13.069Z,15.50
2018-03-25T15:24:40.677Z,15.50
2018-03-25T15:27:09.018Z,15.40
2018-03-25T15:29:36.630Z,15.40
2018-03-25T15:32:04.237Z,15.50
2018-03-25T15:34:31.846Z,15.50
2018-03-25T15:37:00.214Z,15.30
2018-03-25T15:39:27.855Z,15.30
2018-03-25T15:41:55.435Z,15.40
2018-03-25T15:44:23.009Z,15.40
2018-03-25T15:46:50.611Z,15.40
2018-03-25T15:49:18.193Z,15.30
2018-03-25T15:51:46.727Z,15.30
2018-03-25T15:54:14.314Z,15.10
2018-03-25T15:56:41.926Z,15.10
2018-03-25T15:59:09.514Z,15.10
2018-03-25T16:01:37.113Z,15.10
2018-03-25T16:04:04.698Z,15.00
2018-03-25T16:06:32.297Z,14.90
2018-03-25T16:09:00.057Z,14.90
2018-03-25T16:11:27.662Z,14.90
2018-03-25T16:13:55.244Z,15.00
2018-03-25T16:16:22.856Z,15.00
2018-03-25T16:18:51.246Z,15.00
2018-03-25T16:21:18.860Z,15.00
2018-03-25T16:23:46.442Z,14.90
2018-03-25T16:26:14.041Z,14.80
2018-03-25T16:28:41.617Z,14.60
2018-03-25T16:31:09.215Z,14.70
2018-03-25T16:33:36.785Z,14.60
2018-03-25T16:36:04.387Z,14.40
2018-03-25T16:38:32.731Z,14.40
2018-03-25T16:41:00.342Z,14.30
2018-03-25T16:43:27.913Z,14.40
2018-03-25T16:45:55.518Z,14.40
2018-03-25T16:48:23.114Z,14.30
2018-03-25T16:50:50.766Z,14.20
2018-03-25T16:53:19.224Z,14.00
2018-03-25T16:55:46.846Z,14.00
2018-03-25T16:58:14.422Z,13.90
2018-03-25T17:00:42.004Z,14.00
2018-03-25T17:03:09.633Z,13.90
2018-03-25T17:05:37.222Z,13.80
2018-03-25T17:08:04.821Z,13.80
2018-03-25T17:10:32.397Z,13.70
2018-03-25T17:12:59.997Z,13.60
2018-03-25T17:15:27.586Z,13.50
2018-03-25T17:17:55.955Z,13.20
2018-03-25T17:20:24.315Z,13.30
2018-03-25T17:22:51.913Z,13.30
2018-03-25T17:25:19.484Z,13.20
2018-03-25T17:29:50.514Z,13.10
2018-03-25T17:32:18.314Z,12.80
2018-03-25T17:34:46.673Z,12.50
2018-03-25T17:37:14.265Z,12.40
2018-03-25T17:39:41.847Z,12.50
2018-03-25T17:42:09.474Z,12.60
2018-03-25T17:44:37.041Z,12.40
2018-03-25T17:47:04.626Z,12.10
2018-03-25T17:49:32.194Z,11.90
2018-03-25T17:52:01.299Z,11.80
2018-03-25T17:54:29.651Z,11.70
2018-03-25T17:56:57.270Z,11.60
2018-03-25T17:59:24.855Z,11.50
2018-03-25T18:01:52.517Z,11.30
2018-03-25T18:04:20.097Z,11.40
2018-03-25T18:06:47.695Z,11.20
2018-03-25T18:09:15.294Z,10.80
2018-03-25T18:11:42.880Z,10.60
2018-03-25T18:14:10.521Z,10.50
2018-03-25T18:16:38.101Z,10.30
2018-03-25T18:19:05.752Z,10.10
2018-03-25T18:21:33.349Z,10.20
2018-03-25T18:24:00.949Z,10.00
2018-03-25T18:26:28.533Z,10.00
2018-03-25T18:28:56.126Z,9.80
2018-03-25T18:31:24.461Z,9.60
2018-03-25T18:33:52.178Z,9.60
2018-03-25T18:36:19.766Z,9.60
2018-03-25T18:38:47.370Z,9.70
2018-03-25T18:41:14.992Z,9.40
2018-03-25T18:43:42.773Z,9.40
2018-03-25T18:46:10.499Z,9.10
2018-03-25T18:48:39.013Z,9.20
2018-03-25T18:51:06.630Z,8.90
2018-03-25T18:53:34.228Z,8.70
2018-03-25T18:56:01.807Z,8.60
2018-03-25T18:58:29.426Z,8.40
2018-03-25T19:00:56.990Z,8.40
2018-03-25T19:03:24.582Z,8.40
2018-03-25T19:05:52.391Z,8.30
2018-03-25T19:08:20.005Z,8.20
2018-03-25T19:10:47.579Z,8.10
2018-03-25T19:13:16.757Z,7.90
2018-03-25T19:15:45.058Z,7.90
2018-03-25T19:18:12.667Z,7.90
2018-03-25T19:20:40.285Z,7.80
2018-03-25T19:23:07.854Z,7.90
2018-03-25T19:25:35.443Z,7.80
2018-03-25T19:28:03.941Z,7.80
2018-03-25T19:30:31.530Z,7.70
2018-03-25T19:32:59.866Z,7.50
2018-03-25T19:35:27.455Z,7.50
2018-03-25T19:37:55.022Z,7.30
2018-03-25T19:40:23.378Z,7.20
2018-03-25T19:42:50.950Z,7.20
2018-03-25T19:45:18.806Z,7.20
2018-03-25T19:47:46.381Z,7.40
2018-03-25T19:50:14.751Z,7.10
2018-03-25T19:52:42.326Z,7.10
2018-03-25T19:55:10.693Z,6.80
2018-03-25T19:57:39.064Z,6.70
2018-03-25T20:00:06.667Z,6.70
2018-03-25T20:02:34.242Z,6.90
2018-03-25T20:05:01.843Z,6.80
2018-03-25T20:07:29.427Z,6.90
2018-03-25T20:09:57.789Z,6.70
2018-03-25T20:12:26.453Z,6.60
2018-03-25T20:14:54.046Z,6.60
2018-03-25T20:17:21.623Z,6.40
2018-03-25T20:19:49.214Z,6.50
2018-03-25T20:22:16.823Z,6.30
2018-03-25T20:24:44.401Z,6.40
2018-03-25T20:27:11.973Z,6.50
2018-03-25T20:29:39.586Z,6.30
2018-03-25T20:32:07.924Z,6.30
2018-03-25T20:34:35.485Z,6.30
2018-03-25T20:37:03.115Z,6.20
2018-03-25T20:39:30.695Z,6.10
2018-03-25T20:41:58.285Z,6.10
2018-03-25T20:44:25.855Z,6.10
2018-03-25T20:46:53.478Z,6.10
2018-03-25T20:49:21.047Z,6.30
2018-03-25T20:51:48.651Z,6.00
2018-03-25T20:54:17.011Z,5.90
2018-03-25T20:56:45.206Z,5.90
2018-03-25T20:59:13.543Z,6.00
2018-03-25T21:01:41.150Z,6.00
2018-03-25T21:04:08.723Z,5.90
2018-03-25T21:06:36.646Z,6.00
2018-03-25T21:09:04.223Z,5.90
2018-03-25T21:11:32.653Z,5.80
2018-03-25T21:14:00.985Z,5.50
2018-03-25T21:16:28.578Z,5.40
2018-03-25T21:18:56.149Z,5.30
2018-03-25T21:21:23.745Z,5.50
2018-03-25T21:23:51.342Z,5.50
2018-03-25T21:26:18.984Z,5.30
2018-03-25T21:28:46.558Z,5.20
2018-03-25T21:31:14.147Z,5.30
2018-03-25T21:33:41.719Z,5.20
2018-03-25T21:36:09.325Z,5.10
2018-03-25T21:38:36.939Z,5.00
2018-03-25T21:41:04.533Z,5.00
2018-03-25T21:43:32.867Z,5.10
2018-03-25T21:46:00.454Z,5.10
2018-03-25T21:48:28.026Z,5.00
2018-03-25T21:50:56.377Z,4.80
2018-03-25T21:53:23.981Z,4.80
2018-03-25T21:55:51.562Z,4.80
2018-03-25T21:58:19.158Z,4.80
2018-03-25T22:00:46.747Z,4.90
2018-03-25T22:03:15.112Z,4.80
2018-03-25T22:05:42.684Z,4.70
2018-03-25T22:08:11.042Z,4.80
2018-03-25T22:10:38.614Z,4.80
2018-03-25T22:13:06.234Z,4.60
2018-03-25T22:15:33.806Z,4.60
2018-03-25T22:18:01.396Z,4.60
2018-03-25T22:20:29.734Z,4.50
2018-03-25T22:22:57.326Z,4.50
2018-03-25T22:25:25.670Z,4.60
2018-03-25T22:27:53.262Z,4.50
2018-03-25T22:30:21.599Z,4.60
2018-03-25T22:32:49.201Z,4.50
2018-03-25T22:35:16.774Z,4.60
2018-03-25T22:37:44.374Z,4.60
2018-03-25T22:40:12.713Z,4.80
2018-03-25T22:42:40.322Z,4.80
2018-03-25T22:45:07.905Z,4.90
2018-03-25T22:47:36.270Z,4.60
2018-03-25T22:50:03.865Z,4.60
2018-03-25T22:52:31.446Z,4.60
2018-03-25T22:54:59.038Z,4.60
2018-03-25T22:57:26.613Z,4.70
2018-03-25T22:59:54.207Z,4.60
2018-03-25T23:02:21.889Z,4.50
2018-03-25T23:04:49.478Z,4.50
2018-03-25T23:07:17.044Z,4.50
2018-03-25T23:09:44.754Z,4.60
2018-03-25T23:12:12.331Z,4.60
2018-03-25T23:14:39.925Z,4.60
2018-03-25T23:17:07.494Z,4.70
2018-03-25T23:19:35.110Z,4.60
2018-03-25T23:22:02.756Z,4.50
2018-03-25T23:24:30.340Z,4.50
2018-03-25T23:26:57.937Z,4.50
2018-03-25T23:29:26.298Z,4.40
2018-03-25T23:31:53.873Z,4.40
2018-03-25T23:34:21.491Z,4.60
2018-03-25T23:36:49.057Z,4.50
2018-03-25T23:39:16.648Z,4.40
2018-03-25T23:41:44.218Z,4.40
2018-03-25T23:44:12.577Z,4.40
2018-03-25T23:46:40.154Z,4.40
2018-03-25T23:49:08.513Z,4.40
2018-03-25T23:51:36.086Z,4.40
2018-03-25T23:54:03.721Z,4.30
2018-03-25T23:56:31.294Z,4.30
2018-03-25T23:58:58.892Z,4.30
